Terminal Aerodrome Forecast
Issued by NWS

Home | Current Version | Previous Version | Text Only | Print | Product List | Glossary On
Versions: 1 2 3 4 5 6 7 8 9 10 11 12 13 14 15 16 17 18 19 20 21 22 23 24 25 26 27 28 29 30 31 32 33 34 35 36 37 38 39 40 41
000
FTAK31 PANC 050527
TAFASN
TAF
PASN 050527Z 0506/0606 08022KT 3SM -RA BR OVC010
      TEMPO 0506/0510 2SM -RA BR OVC007
     FM051200 07018KT 3SM -RA BR OVC005
     FM052100 09013KT 5SM BR VCSH SCT005 OVC010
     FM060300 12008KT 3SM BR BKN005=

USA.gov is the U.S. government's official web portal to all federal, state and local government web resources and services.